sensor_id;sensor_type;location;lat;lon;timestamp;temperature;humidity
32476;DHT22;18929;48.008;10.882;2022-12-18T00:02:07;-0.70;99.90
32476;DHT22;18929;48.008;10.882;2022-12-18T00:04:38;-1.60;99.90
32476;DHT22;18929;48.008;10.882;2022-12-18T00:07:06;-1.30;99.90
32476;DHT22;18929;48.008;10.882;2022-12-18T00:09:34;-1.20;99.90
32476;DHT22;18929;48.008;10.882;2022-12-18T00:12:02;-1.00;99.90
32476;DHT22;18929;48.008;10.882;2022-12-18T00:14:32;-0.80;99.90
32476;DHT22;18929;48.008;10.882;2022-12-18T00:17:00;-0.70;99.90
32476;DHT22;18929;48.008;10.882;2022-12-18T00:19:28;-0.60;99.90
32476;DHT22;18929;48.008;10.882;2022-12-18T00:21:56;-0.60;99.90
32476;DHT22;18929;48.008;10.882;2022-12-18T00:24:24;-0.70;99.90
32476;DHT22;18929;48.008;10.882;2022-12-18T00:26:51;-1.20;99.90
32476;DHT22;18929;48.008;10.882;2022-12-18T00:29:19;-1.20;99.90
32476;DHT22;18929;48.008;10.882;2022-12-18T00:31:48;-1.00;99.90
32476;DHT22;18929;48.008;10.882;2022-12-18T00:34:15;-0.90;99.90
32476;DHT22;18929;48.008;10.882;2022-12-18T00:36:43;-0.90;99.90
32476;DHT22;18929;48.008;10.882;2022-12-18T00:39:11;-1.40;99.90
32476;DHT22;18929;48.008;10.882;2022-12-18T00:41:39;-1.60;99.90
32476;DHT22;18929;48.008;10.882;2022-12-18T00:44:24;-1.80;99.90
32476;DHT22;18929;48.008;10.882;2022-12-18T00:46:53;-2.10;99.90
32476;DHT22;18929;48.008;10.882;2022-12-18T00:49:21;-1.40;99.90
32476;DHT22;18929;48.008;10.882;2022-12-18T00:51:48;-1.10;99.90
32476;DHT22;18929;48.008;10.882;2022-12-18T00:54:16;-1.00;99.90
32476;DHT22;18929;48.008;10.882;2022-12-18T00:56:44;-0.90;99.90
32476;DHT22;18929;48.008;10.882;2022-12-18T00:59:11;-0.80;99.90
32476;DHT22;18929;48.008;10.882;2022-12-18T01:01:39;-0.50;99.90
32476;DHT22;18929;48.008;10.882;2022-12-18T01:04:08;-0.40;99.90
32476;DHT22;18929;48.008;10.882;2022-12-18T01:06:36;-0.60;99.90
32476;DHT22;18929;48.008;10.882;2022-12-18T01:09:03;-0.50;99.90
32476;DHT22;18929;48.008;10.882;2022-12-18T01:11:31;-0.60;99.90
32476;DHT22;18929;48.008;10.882;2022-12-18T01:13:58;-0.60;99.90
32476;DHT22;18929;48.008;10.882;2022-12-18T01:16:29;-0.80;99.90
32476;DHT22;18929;48.008;10.882;2022-12-18T01:18:57;-0.70;99.90
32476;DHT22;18929;48.008;10.882;2022-12-18T01:21:26;-0.70;99.90
32476;DHT22;18929;48.008;10.882;2022-12-18T01:23:55;-1.00;99.90
32476;DHT22;18929;48.008;10.882;2022-12-18T01:26:24;-0.90;99.90
32476;DHT22;18929;48.008;10.882;2022-12-18T01:28:54;-0.70;99.90
32476;DHT22;18929;48.008;10.882;2022-12-18T01:31:24;-0.60;99.90
32476;DHT22;18929;48.008;10.882;2022-12-18T01:33:52;-0.60;99.90
32476;DHT22;18929;48.008;10.882;2022-12-18T01:36:22;-0.50;99.90
32476;DHT22;18929;48.008;10.882;2022-12-18T01:38:52;-0.50;99.90
32476;DHT22;18929;48.008;10.882;2022-12-18T01:41:23;-0.70;99.90
32476;DHT22;18929;48.008;10.882;2022-12-18T01:43:52;-0.70;99.90
32476;DHT22;18929;48.008;10.882;2022-12-18T01:46:22;-0.90;99.90
32476;DHT22;18929;48.008;10.882;2022-12-18T01:48:56;-0.60;99.90
32476;DHT22;18929;48.008;10.882;2022-12-18T01:51:25;-0.50;99.90
32476;DHT22;18929;48.008;10.882;2022-12-18T01:53:55;-0.60;99.90
32476;DHT22;18929;48.008;10.882;2022-12-18T01:56:24;-0.90;99.90
32476;DHT22;18929;48.008;10.882;2022-12-18T01:58:55;-0.80;99.90
32476;DHT22;18929;48.008;10.882;2022-12-18T02:01:23;-0.80;99.90
32476;DHT22;18929;48.008;10.882;2022-12-18T02:03:52;-0.80;99.90
32476;DHT22;18929;48.008;10.882;2022-12-18T02:06:23;-0.80;99.90
32476;DHT22;18929;48.008;10.882;2022-12-18T02:09:02;-0.70;99.90
32476;DHT22;18929;48.008;10.882;2022-12-18T02:11:39;-0.60;99.90
32476;DHT22;18929;48.008;10.882;2022-12-18T02:14:16;-0.90;99.90
32476;DHT22;18929;48.008;10.882;2022-12-18T02:16:49;-1.10;99.90
32476;DHT22;18929;48.008;10.882;2022-12-18T02:19:44;-0.90;99.90
32476;DHT22;18929;48.008;10.882;2022-12-18T02:22:25;-0.80;99.90
32476;DHT22;18929;48.008;10.882;2022-12-18T02:25:04;-0.90;99.90
32476;DHT22;18929;48.008;10.882;2022-12-18T02:27:37;-0.80;99.90
32476;DHT22;18929;48.008;10.882;2022-12-18T02:30:07;-0.70;99.90
32476;DHT22;18929;48.008;10.882;2022-12-18T02:32:39;-0.80;99.90
32476;DHT22;18929;48.008;10.882;2022-12-18T02:35:10;-0.70;99.90
32476;DHT22;18929;48.008;10.882;2022-12-18T02:37:40;-1.10;99.90
32476;DHT22;18929;48.008;10.882;2022-12-18T02:40:09;-0.80;99.90
32476;DHT22;18929;48.008;10.882;2022-12-18T02:42:40;-0.70;99.90
32476;DHT22;18929;48.008;10.882;2022-12-18T02:45:09;-0.70;99.90
32476;DHT22;18929;48.008;10.882;2022-12-18T02:47:39;-0.60;99.90
32476;DHT22;18929;48.008;10.882;2022-12-18T02:50:15;-0.70;99.90
32476;DHT22;18929;48.008;10.882;2022-12-18T02:52:54;-0.70;99.90
32476;DHT22;18929;48.008;10.882;2022-12-18T02:55:33;-0.70;99.90
32476;DHT22;18929;48.008;10.882;2022-12-18T02:58:10;-0.60;99.90
32476;DHT22;18929;48.008;10.882;2022-12-18T03:00:43;-0.50;99.90
32476;DHT22;18929;48.008;10.882;2022-12-18T03:03:21;-0.50;99.90
32476;DHT22;18929;48.008;10.882;2022-12-18T03:05:55;-0.60;99.90
32476;DHT22;18929;48.008;10.882;2022-12-18T03:08:26;-0.60;99.90
32476;DHT22;18929;48.008;10.882;2022-12-18T03:10:58;-0.60;99.90
32476;DHT22;18929;48.008;10.882;2022-12-18T03:13:34;-0.60;99.90
32476;DHT22;18929;48.008;10.882;2022-12-18T03:16:06;-0.50;99.90
32476;DHT22;18929;48.008;10.882;2022-12-18T03:18:37;-0.70;99.90
32476;DHT22;18929;48.008;10.882;2022-12-18T03:21:06;-0.60;99.90
32476;DHT22;18929;48.008;10.882;2022-12-18T03:23:40;-0.50;99.90
32476;DHT22;18929;48.008;10.882;2022-12-18T03:26:14;-0.80;99.90
32476;DHT22;18929;48.008;10.882;2022-12-18T03:28:46;-0.70;99.90
32476;DHT22;18929;48.008;10.882;2022-12-18T03:31:16;-0.60;99.90
32476;DHT22;18929;48.008;10.882;2022-12-18T03:33:51;-0.70;99.90
32476;DHT22;18929;48.008;10.882;2022-12-18T03:36:19;-1.90;99.90
32476;DHT22;18929;48.008;10.882;2022-12-18T03:38:47;-1.30;99.90
32476;DHT22;18929;48.008;10.882;2022-12-18T03:41:19;-1.30;99.90
32476;DHT22;18929;48.008;10.882;2022-12-18T03:43:57;-1.80;99.90
32476;DHT22;18929;48.008;10.882;2022-12-18T03:46:29;-1.90;99.90
32476;DHT22;18929;48.008;10.882;2022-12-18T03:48:59;-1.40;99.90
32476;DHT22;18929;48.008;10.882;2022-12-18T03:51:34;-0.80;99.90
32476;DHT22;18929;48.008;10.882;2022-12-18T03:54:06;-0.80;99.90
32476;DHT22;18929;48.008;10.882;2022-12-18T03:56:40;-0.80;99.90
32476;DHT22;18929;48.008;10.882;2022-12-18T03:59:12;-1.40;99.90
32476;DHT22;18929;48.008;10.882;2022-12-18T04:01:46;-1.40;99.90
32476;DHT22;18929;48.008;10.882;2022-12-18T04:04:16;-0.70;99.90
32476;DHT22;18929;48.008;10.882;2022-12-18T04:06:49;-0.70;99.90
32476;DHT22;18929;48.008;10.882;2022-12-18T04:09:18;-0.60;99.90
32476;DHT22;18929;48.008;10.882;2022-12-18T04:11:49;-0.60;99.90
32476;DHT22;18929;48.008;10.882;2022-12-18T04:14:18;-0.80;99.90
32476;DHT22;18929;48.008;10.882;2022-12-18T04:16:46;-0.60;99.90
32476;DHT22;18929;48.008;10.882;2022-12-18T04:19:15;-0.60;99.90
32476;DHT22;18929;48.008;10.882;2022-12-18T04:21:43;-0.60;99.90
32476;DHT22;18929;48.008;10.882;2022-12-18T04:24:11;-0.50;99.90
32476;DHT22;18929;48.008;10.882;2022-12-18T04:26:39;-2.60;99.90
32476;DHT22;18929;48.008;10.882;2022-12-18T04:29:06;-1.70;99.90
32476;DHT22;18929;48.008;10.882;2022-12-18T04:31:36;-1.20;99.90
32476;DHT22;18929;48.008;10.882;2022-12-18T04:34:07;-0.90;99.90
32476;DHT22;18929;48.008;10.882;2022-12-18T04:36:34;-0.90;99.90
32476;DHT22;18929;48.008;10.882;2022-12-18T04:39:02;-1.10;99.90
32476;DHT22;18929;48.008;10.882;2022-12-18T04:41:30;-1.00;99.90
32476;DHT22;18929;48.008;10.882;2022-12-18T04:43:58;-0.80;99.90
32476;DHT22;18929;48.008;10.882;2022-12-18T04:46:26;-1.40;99.90
32476;DHT22;18929;48.008;10.882;2022-12-18T04:48:56;-1.50;99.90
32476;DHT22;18929;48.008;10.882;2022-12-18T04:51:24;-2.20;99.90
32476;DHT22;18929;48.008;10.882;2022-12-18T04:53:52;-2.00;99.90
32476;DHT22;18929;48.008;10.882;2022-12-18T04:56:20;-2.00;99.90
32476;DHT22;18929;48.008;10.882;2022-12-18T04:58:48;-2.40;99.90
32476;DHT22;18929;48.008;10.882;2022-12-18T05:01:17;-1.80;99.90
32476;DHT22;18929;48.008;10.882;2022-12-18T05:03:45;-1.50;99.90
32476;DHT22;18929;48.008;10.882;2022-12-18T05:06:14;-1.30;99.90
32476;DHT22;18929;48.008;10.882;2022-12-18T05:08:42;-1.20;99.90
32476;DHT22;18929;48.008;10.882;2022-12-18T05:11:13;-1.80;99.90
32476;DHT22;18929;48.008;10.882;2022-12-18T05:13:43;-1.60;99.90
32476;DHT22;18929;48.008;10.882;2022-12-18T05:16:13;-1.20;99.90
32476;DHT22;18929;48.008;10.882;2022-12-18T05:18:41;-1.00;99.90
32476;DHT22;18929;48.008;10.882;2022-12-18T05:21:09;-0.80;99.90
32476;DHT22;18929;48.008;10.882;2022-12-18T05:23:39;-0.80;99.90
32476;DHT22;18929;48.008;10.882;2022-12-18T05:26:07;-0.90;99.90
32476;DHT22;18929;48.008;10.882;2022-12-18T05:28:36;-2.20;99.90
32476;DHT22;18929;48.008;10.882;2022-12-18T05:31:04;-1.30;99.90
32476;DHT22;18929;48.008;10.882;2022-12-18T05:33:34;-1.40;99.90
32476;DHT22;18929;48.008;10.882;2022-12-18T05:36:03;-1.30;99.90
32476;DHT22;18929;48.008;10.882;2022-12-18T05:38:32;-1.20;99.90
32476;DHT22;18929;48.008;10.882;2022-12-18T05:41:01;-0.80;99.90
32476;DHT22;18929;48.008;10.882;2022-12-18T05:43:29;-1.00;99.90
32476;DHT22;18929;48.008;10.882;2022-12-18T05:45:57;-0.70;99.90
32476;DHT22;18929;48.008;10.882;2022-12-18T05:48:25;-0.60;99.90
32476;DHT22;18929;48.008;10.882;2022-12-18T05:50:52;-0.70;99.90
32476;DHT22;18929;48.008;10.882;2022-12-18T05:53:21;-0.70;99.90
32476;DHT22;18929;48.008;10.882;2022-12-18T05:55:49;-0.60;99.90
32476;DHT22;18929;48.008;10.882;2022-12-18T05:58:17;-0.70;99.90
32476;DHT22;18929;48.008;10.882;2022-12-18T06:00:46;-0.90;99.90
32476;DHT22;18929;48.008;10.882;2022-12-18T06:03:35;-0.80;99.90
32476;DHT22;18929;48.008;10.882;2022-12-18T06:06:04;-0.90;99.90
32476;DHT22;18929;48.008;10.882;2022-12-18T06:08:39;-1.00;99.90
32476;DHT22;18929;48.008;10.882;2022-12-18T06:11:10;-1.00;99.90
32476;DHT22;18929;48.008;10.882;2022-12-18T06:13:40;-1.10;99.90
32476;DHT22;18929;48.008;10.882;2022-12-18T06:16:08;-1.50;99.90
32476;DHT22;18929;48.008;10.882;2022-12-18T06:18:38;-1.50;99.90
32476;DHT22;18929;48.008;10.882;2022-12-18T06:21:06;-1.20;99.90
32476;DHT22;18929;48.008;10.882;2022-12-18T06:23:34;-1.00;99.90
32476;DHT22;18929;48.008;10.882;2022-12-18T06:26:08;-0.80;99.90
32476;DHT22;18929;48.008;10.882;2022-12-18T06:28:44;-0.70;99.90
32476;DHT22;18929;48.008;10.882;2022-12-18T06:31:13;-1.00;99.90
32476;DHT22;18929;48.008;10.882;2022-12-18T06:33:42;-0.90;99.90
32476;DHT22;18929;48.008;10.882;2022-12-18T06:36:17;-0.90;99.90
32476;DHT22;18929;48.008;10.882;2022-12-18T06:38:54;-0.90;99.90
32476;DHT22;18929;48.008;10.882;2022-12-18T06:41:21;-0.80;99.90
32476;DHT22;18929;48.008;10.882;2022-12-18T06:43:51;-0.90;99.90
32476;DHT22;18929;48.008;10.882;2022-12-18T06:46:18;-1.10;99.90
32476;DHT22;18929;48.008;10.882;2022-12-18T06:48:47;-0.90;99.90
32476;DHT22;18929;48.008;10.882;2022-12-18T06:51:19;-0.90;99.90
32476;DHT22;18929;48.008;10.882;2022-12-18T06:53:46;-1.00;99.90
32476;DHT22;18929;48.008;10.882;2022-12-18T06:56:14;-0.80;99.90
32476;DHT22;18929;48.008;10.882;2022-12-18T06:58:43;-0.70;99.90
32476;DHT22;18929;48.008;10.882;2022-12-18T07:01:12;-0.70;99.90
32476;DHT22;18929;48.008;10.882;2022-12-18T07:03:40;-0.90;99.90
32476;DHT22;18929;48.008;10.882;2022-12-18T07:06:13;-0.70;99.90
32476;DHT22;18929;48.008;10.882;2022-12-18T07:08:41;-1.70;99.90
32476;DHT22;18929;48.008;10.882;2022-12-18T07:52:29;-0.90;99.90
32476;DHT22;18929;48.008;10.882;2022-12-18T07:55:09;-1.80;99.90
32476;DHT22;18929;48.008;10.882;2022-12-18T07:57:36;-1.10;99.90
32476;DHT22;18929;48.008;10.882;2022-12-18T08:00:04;-1.10;99.90
32476;DHT22;18929;48.008;10.882;2022-12-18T08:02:33;-1.10;99.90
32476;DHT22;18929;48.008;10.882;2022-12-18T08:05:00;-0.90;99.90
32476;DHT22;18929;48.008;10.882;2022-12-18T08:07:28;-0.90;99.90
32476;DHT22;18929;48.008;10.882;2022-12-18T08:09:55;-1.10;99.90
32476;DHT22;18929;48.008;10.882;2022-12-18T08:12:22;-0.90;99.90
32476;DHT22;18929;48.008;10.882;2022-12-18T08:14:49;-0.90;99.90
32476;DHT22;18929;48.008;10.882;2022-12-18T08:17:16;-1.10;99.90
32476;DHT22;18929;48.008;10.882;2022-12-18T08:19:43;-1.00;99.90
32476;DHT22;18929;48.008;10.882;2022-12-18T08:22:10;-0.90;99.90
32476;DHT22;18929;48.008;10.882;2022-12-18T08:24:38;-1.10;99.90
32476;DHT22;18929;48.008;10.882;2022-12-18T08:27:05;-1.00;99.90
32476;DHT22;18929;48.008;10.882;2022-12-18T08:29:32;-0.80;99.90
32476;DHT22;18929;48.008;10.882;2022-12-18T08:32:03;-0.80;99.90
32476;DHT22;18929;48.008;10.882;2022-12-18T08:34:30;-0.80;99.90
32476;DHT22;18929;48.008;10.882;2022-12-18T08:36:57;-0.80;99.90
32476;DHT22;18929;48.008;10.882;2022-12-18T08:39:24;-0.80;99.90
32476;DHT22;18929;48.008;10.882;2022-12-18T08:41:53;-0.70;99.90
32476;DHT22;18929;48.008;10.882;2022-12-18T08:44:46;-1.50;99.90
32476;DHT22;18929;48.008;10.882;2022-12-18T08:47:13;-1.10;99.90
32476;DHT22;18929;48.008;10.882;2022-12-18T08:49:40;-0.80;99.90
32476;DHT22;18929;48.008;10.882;2022-12-18T08:52:07;-0.70;99.90
32476;DHT22;18929;48.008;10.882;2022-12-18T08:54:35;-0.80;99.90
32476;DHT22;18929;48.008;10.882;2022-12-18T08:57:03;-0.80;99.90
32476;DHT22;18929;48.008;10.882;2022-12-18T08:59:30;-0.90;99.90
32476;DHT22;18929;48.008;10.882;2022-12-18T09:01:57;-1.10;99.90
32476;DHT22;18929;48.008;10.882;2022-12-18T09:04:24;-1.10;99.90
32476;DHT22;18929;48.008;10.882;2022-12-18T09:06:57;-1.00;99.90
32476;DHT22;18929;48.008;10.882;2022-12-18T09:09:25;-0.90;99.90
32476;DHT22;18929;48.008;10.882;2022-12-18T09:11:52;-0.90;99.90
32476;DHT22;18929;48.008;10.882;2022-12-18T09:14:20;-0.80;99.90
32476;DHT22;18929;48.008;10.882;2022-12-18T09:16:47;-1.60;99.90
32476;DHT22;18929;48.008;10.882;2022-12-18T09:19:14;-1.10;99.90
32476;DHT22;18929;48.008;10.882;2022-12-18T09:24:48;-0.70;99.90
32476;DHT22;18929;48.008;10.882;2022-12-18T09:27:15;-1.30;99.90
32476;DHT22;18929;48.008;10.882;2022-12-18T09:29:44;-2.70;99.90
32476;DHT22;18929;48.008;10.882;2022-12-18T09:32:11;-2.30;99.90
32476;DHT22;18929;48.008;10.882;2022-12-18T09:34:38;-1.70;99.90
32476;DHT22;18929;48.008;10.882;2022-12-18T09:37:05;-1.90;99.90
32476;DHT22;18929;48.008;10.882;2022-12-18T09:39:36;-1.30;99.90
32476;DHT22;18929;48.008;10.882;2022-12-18T09:42:03;-1.60;99.90
32476;DHT22;18929;48.008;10.882;2022-12-18T09:44:35;-1.20;99.90
32476;DHT22;18929;48.008;10.882;2022-12-18T09:47:13;-1.10;99.90
32476;DHT22;18929;48.008;10.882;2022-12-18T09:49:44;-2.80;99.90
32476;DHT22;18929;48.008;10.882;2022-12-18T09:52:16;-1.80;99.90
32476;DHT22;18929;48.008;10.882;2022-12-18T09:54:48;-1.10;99.90
32476;DHT22;18929;48.008;10.882;2022-12-18T09:57:19;-0.90;99.90
32476;DHT22;18929;48.008;10.882;2022-12-18T09:59:51;-0.70;99.90
32476;DHT22;18929;48.008;10.882;2022-12-18T10:02:23;-2.10;99.90
32476;DHT22;18929;48.008;10.882;2022-12-18T10:05:00;-2.60;99.90
32476;DHT22;18929;48.008;10.882;2022-12-18T10:07:43;-1.70;99.90
32476;DHT22;18929;48.008;10.882;2022-12-18T10:10:21;-1.30;99.90
32476;DHT22;18929;48.008;10.882;2022-12-18T10:12:56;-1.00;99.90
32476;DHT22;18929;48.008;10.882;2022-12-18T10:15:31;-1.20;99.90
32476;DHT22;18929;48.008;10.882;2022-12-18T10:18:25;-0.80;99.90
32476;DHT22;18929;48.008;10.882;2022-12-18T10:20:59;-1.20;99.90
32476;DHT22;18929;48.008;10.882;2022-12-18T10:23:35;-1.50;99.90
32476;DHT22;18929;48.008;10.882;2022-12-18T10:26:10;-1.30;99.90
32476;DHT22;18929;48.008;10.882;2022-12-18T10:28:39;-0.80;99.90
32476;DHT22;18929;48.008;10.882;2022-12-18T10:31:07;-1.70;99.90
32476;DHT22;18929;48.008;10.882;2022-12-18T10:33:36;-2.20;99.90
32476;DHT22;18929;48.008;10.882;2022-12-18T10:36:06;-1.80;99.90
32476;DHT22;18929;48.008;10.882;2022-12-18T10:38:34;-1.10;99.90
32476;DHT22;18929;48.008;10.882;2022-12-18T10:41:05;-1.50;99.90
32476;DHT22;18929;48.008;10.882;2022-12-18T10:44:10;-1.20;99.90
32476;DHT22;18929;48.008;10.882;2022-12-18T10:46:38;-1.10;99.90
32476;DHT22;18929;48.008;10.882;2022-12-18T10:49:27;-0.80;99.90
32476;DHT22;18929;48.008;10.882;2022-12-18T10:52:06;-0.60;99.90
32476;DHT22;18929;48.008;10.882;2022-12-18T10:54:34;-0.60;99.90
32476;DHT22;18929;48.008;10.882;2022-12-18T10:57:16;-0.90;99.90
32476;DHT22;18929;48.008;10.882;2022-12-18T10:59:53;-1.00;99.90
32476;DHT22;18929;48.008;10.882;2022-12-18T11:02:28;-0.60;99.90
32476;DHT22;18929;48.008;10.882;2022-12-18T11:05:02;-0.50;99.90
32476;DHT22;18929;48.008;10.882;2022-12-18T11:07:48;-0.40;99.90
32476;DHT22;18929;48.008;10.882;2022-12-18T11:10:17;-0.40;99.90
32476;DHT22;18929;48.008;10.882;2022-12-18T11:12:44;-0.20;99.90
32476;DHT22;18929;48.008;10.882;2022-12-18T11:15:15;-1.00;99.90
32476;DHT22;18929;48.008;10.882;2022-12-18T11:17:43;-0.70;99.90
32476;DHT22;18929;48.008;10.882;2022-12-18T11:20:26;-1.40;99.90
32476;DHT22;18929;48.008;10.882;2022-12-18T11:22:56;-1.20;99.90
32476;DHT22;18929;48.008;10.882;2022-12-18T11:25:24;-0.80;99.90
32476;DHT22;18929;48.008;10.882;2022-12-18T11:27:53;-1.10;99.90
32476;DHT22;18929;48.008;10.882;2022-12-18T11:30:23;-1.60;99.90
32476;DHT22;18929;48.008;10.882;2022-12-18T11:32:53;-2.50;99.90
32476;DHT22;18929;48.008;10.882;2022-12-18T11:35:30;-2.50;99.90
32476;DHT22;18929;48.008;10.882;2022-12-18T11:38:04;-2.10;99.90
32476;DHT22;18929;48.008;10.882;2022-12-18T11:40:35;-1.10;99.90
32476;DHT22;18929;48.008;10.882;2022-12-18T11:43:06;-1.80;99.90
32476;DHT22;18929;48.008;10.882;2022-12-18T11:45:37;-1.60;99.90
32476;DHT22;18929;48.008;10.882;2022-12-18T11:48:08;-1.90;99.90
32476;DHT22;18929;48.008;10.882;2022-12-18T11:50:46;-1.90;99.90
32476;DHT22;18929;48.008;10.882;2022-12-18T11:53:15;-1.50;99.90
32476;DHT22;18929;48.008;10.882;2022-12-18T11:56:00;-0.90;99.90
32476;DHT22;18929;48.008;10.882;2022-12-18T11:58:44;-0.60;99.90
32476;DHT22;18929;48.008;10.882;2022-12-18T12:01:25;-0.60;99.90
32476;DHT22;18929;48.008;10.882;2022-12-18T12:04:23;-0.50;99.90
32476;DHT22;18929;48.008;10.882;2022-12-18T12:07:01;-0.40;99.90
32476;DHT22;18929;48.008;10.882;2022-12-18T12:09:35;-0.70;99.90
32476;DHT22;18929;48.008;10.882;2022-12-18T12:12:21;-0.90;99.90
32476;DHT22;18929;48.008;10.882;2022-12-18T12:14:55;-0.60;99.90
32476;DHT22;18929;48.008;10.882;2022-12-18T12:17:32;-0.40;99.90
32476;DHT22;18929;48.008;10.882;2022-12-18T12:20:08;-0.50;99.90
32476;DHT22;18929;48.008;10.882;2022-12-18T12:22:44;-0.70;99.90
32476;DHT22;18929;48.008;10.882;2022-12-18T12:25:21;-0.70;99.90
32476;DHT22;18929;48.008;10.882;2022-12-18T12:28:00;-0.40;99.90
32476;DHT22;18929;48.008;10.882;2022-12-18T12:30:33;-1.10;99.90
32476;DHT22;18929;48.008;10.882;2022-12-18T12:33:13;-0.60;99.90
32476;DHT22;18929;48.008;10.882;2022-12-18T12:35:56;-1.90;99.90
32476;DHT22;18929;48.008;10.882;2022-12-18T12:38:31;-2.40;99.90
32476;DHT22;18929;48.008;10.882;2022-12-18T12:41:03;-3.10;99.90
32476;DHT22;18929;48.008;10.882;2022-12-18T12:43:37;-3.20;99.90
32476;DHT22;18929;48.008;10.882;2022-12-18T12:46:07;-2.60;99.90
32476;DHT22;18929;48.008;10.882;2022-12-18T12:48:40;-2.80;99.90
32476;DHT22;18929;48.008;10.882;2022-12-18T12:51:13;-2.60;99.90
32476;DHT22;18929;48.008;10.882;2022-12-18T12:53:43;-2.30;99.90
32476;DHT22;18929;48.008;10.882;2022-12-18T12:56:13;-1.20;99.90
32476;DHT22;18929;48.008;10.882;2022-12-18T12:58:46;-1.10;99.90
32476;DHT22;18929;48.008;10.882;2022-12-18T13:01:23;-0.90;99.90
32476;DHT22;18929;48.008;10.882;2022-12-18T13:03:58;-0.80;99.90
32476;DHT22;18929;48.008;10.882;2022-12-18T13:06:36;-1.80;99.90
32476;DHT22;18929;48.008;10.882;2022-12-18T13:09:05;-1.00;99.90
32476;DHT22;18929;48.008;10.882;2022-12-18T13:11:36;-0.70;99.90
32476;DHT22;18929;48.008;10.882;2022-12-18T13:14:23;-0.50;99.90
32476;DHT22;18929;48.008;10.882;2022-12-18T13:16:51;-2.30;99.90
32476;DHT22;18929;48.008;10.882;2022-12-18T13:19:22;-3.00;99.90
32476;DHT22;18929;48.008;10.882;2022-12-18T13:21:55;-1.90;99.90
32476;DHT22;18929;48.008;10.882;2022-12-18T13:24:25;-2.50;99.90
32476;DHT22;18929;48.008;10.882;2022-12-18T13:26:53;-2.80;99.90
32476;DHT22;18929;48.008;10.882;2022-12-18T13:29:41;-2.70;99.90
32476;DHT22;18929;48.008;10.882;2022-12-18T13:32:28;-1.70;99.90
32476;DHT22;18929;48.008;10.882;2022-12-18T13:35:38;-1.20;99.90
32476;DHT22;18929;48.008;10.882;2022-12-18T13:38:21;-0.70;99.90
32476;DHT22;18929;48.008;10.882;2022-12-18T13:40:57;-0.80;99.90
32476;DHT22;18929;48.008;10.882;2022-12-18T13:43:38;-0.70;99.90
32476;DHT22;18929;48.008;10.882;2022-12-18T13:46:27;-2.30;99.90
32476;DHT22;18929;48.008;10.882;2022-12-18T13:49:02;-1.40;99.90
32476;DHT22;18929;48.008;10.882;2022-12-18T13:51:46;-1.00;99.90
32476;DHT22;18929;48.008;10.882;2022-12-18T13:54:21;-0.70;99.90
32476;DHT22;18929;48.008;10.882;2022-12-18T13:56:50;-0.50;99.90
32476;DHT22;18929;48.008;10.882;2022-12-18T13:59:19;-0.70;99.90
32476;DHT22;18929;48.008;10.882;2022-12-18T14:01:54;-0.60;99.90
32476;DHT22;18929;48.008;10.882;2022-12-18T14:04:26;-0.50;99.90
32476;DHT22;18929;48.008;10.882;2022-12-18T14:06:57;-0.60;99.90
32476;DHT22;18929;48.008;10.882;2022-12-18T14:09:28;-0.40;99.90
32476;DHT22;18929;48.008;10.882;2022-12-18T14:11:57;-0.50;99.90
32476;DHT22;18929;48.008;10.882;2022-12-18T14:14:42;-0.40;99.90
32476;DHT22;18929;48.008;10.882;2022-12-18T14:17:11;-0.40;99.90
32476;DHT22;18929;48.008;10.882;2022-12-18T14:19:42;-0.50;99.90
32476;DHT22;18929;48.008;10.882;2022-12-18T14:22:18;-0.50;99.90
32476;DHT22;18929;48.008;10.882;2022-12-18T14:24:45;-0.40;99.90
32476;DHT22;18929;48.008;10.882;2022-12-18T14:27:21;-0.50;99.90
32476;DHT22;18929;48.008;10.882;2022-12-18T14:29:49;-0.70;99.90
32476;DHT22;18929;48.008;10.882;2022-12-18T14:32:17;-0.40;99.90
32476;DHT22;18929;48.008;10.882;2022-12-18T14:34:45;-0.30;99.90
32476;DHT22;18929;48.008;10.882;2022-12-18T14:37:14;-0.40;99.90
32476;DHT22;18929;48.008;10.882;2022-12-18T14:39:53;-0.30;99.90
32476;DHT22;18929;48.008;10.882;2022-12-18T14:42:21;-0.40;99.90
32476;DHT22;18929;48.008;10.882;2022-12-18T14:44:48;-0.30;99.90
32476;DHT22;18929;48.008;10.882;2022-12-18T14:47:15;-0.20;99.90
32476;DHT22;18929;48.008;10.882;2022-12-18T14:49:43;-0.20;99.90
32476;DHT22;18929;48.008;10.882;2022-12-18T14:52:20;-0.20;99.90
32476;DHT22;18929;48.008;10.882;2022-12-18T14:54:49;-0.40;99.90
32476;DHT22;18929;48.008;10.882;2022-12-18T14:57:22;-0.40;99.90
32476;DHT22;18929;48.008;10.882;2022-12-18T14:59:50;-0.40;99.90
32476;DHT22;18929;48.008;10.882;2022-12-18T15:02:21;-0.30;99.90
32476;DHT22;18929;48.008;10.882;2022-12-18T15:05:00;-0.10;99.90
32476;DHT22;18929;48.008;10.882;2022-12-18T15:07:40;-0.20;99.90
32476;DHT22;18929;48.008;10.882;2022-12-18T15:10:13;-0.10;99.90
32476;DHT22;18929;48.008;10.882;2022-12-18T15:12:44;-0.10;99.90
32476;DHT22;18929;48.008;10.882;2022-12-18T15:15:46;-0.20;99.90
32476;DHT22;18929;48.008;10.882;2022-12-18T15:18:15;-0.50;99.90
32476;DHT22;18929;48.008;10.882;2022-12-18T15:42:08;-0.60;99.90
32476;DHT22;18929;48.008;10.882;2022-12-18T15:44:55;-0.70;99.90
32476;DHT22;18929;48.008;10.882;2022-12-18T15:47:22;-0.80;99.90
32476;DHT22;18929;48.008;10.882;2022-12-18T15:49:50;-0.70;99.90
32476;DHT22;18929;48.008;10.882;2022-12-18T15:52:17;-0.70;99.90
32476;DHT22;18929;48.008;10.882;2022-12-18T15:54:51;-0.60;99.90
32476;DHT22;18929;48.008;10.882;2022-12-18T15:57:37;-0.70;99.90
32476;DHT22;18929;48.008;10.882;2022-12-18T16:00:08;-0.60;99.90
32476;DHT22;18929;48.008;10.882;2022-12-18T16:02:39;-0.70;99.90
32476;DHT22;18929;48.008;10.882;2022-12-18T16:05:14;-0.60;99.90
32476;DHT22;18929;48.008;10.882;2022-12-18T16:07:43;-0.80;99.90
32476;DHT22;18929;48.008;10.882;2022-12-18T16:10:11;-0.70;99.90
32476;DHT22;18929;48.008;10.882;2022-12-18T16:12:40;-0.70;99.90
32476;DHT22;18929;48.008;10.882;2022-12-18T16:15:10;-0.60;99.90
32476;DHT22;18929;48.008;10.882;2022-12-18T16:17:39;-0.80;99.90
32476;DHT22;18929;48.008;10.882;2022-12-18T16:20:17;-0.90;99.90
32476;DHT22;18929;48.008;10.882;2022-12-18T16:22:45;-0.90;99.90
32476;DHT22;18929;48.008;10.882;2022-12-18T16:25:18;-0.70;99.90
32476;DHT22;18929;48.008;10.882;2022-12-18T16:27:50;-1.40;99.90
32476;DHT22;18929;48.008;10.882;2022-12-18T16:30:22;-2.10;99.90
32476;DHT22;18929;48.008;10.882;2022-12-18T16:32:54;-1.40;99.90
32476;DHT22;18929;48.008;10.882;2022-12-18T16:35:24;-1.00;99.90
32476;DHT22;18929;48.008;10.882;2022-12-18T16:37:54;-1.10;99.90
32476;DHT22;18929;48.008;10.882;2022-12-18T16:40:25;-0.90;99.90
32476;DHT22;18929;48.008;10.882;2022-12-18T16:42:55;-0.80;99.90
32476;DHT22;18929;48.008;10.882;2022-12-18T16:45:22;-0.70;99.90
32476;DHT22;18929;48.008;10.882;2022-12-18T16:47:50;-0.60;99.90
32476;DHT22;18929;48.008;10.882;2022-12-18T16:50:17;-0.60;99.90